sensor_id;sensor_type;location;lat;lon;timestamp;temperature;humidity
7117;DHT22;3600;48.568;7.870;2022-11-20T00:00:17;8.00;99.90
7117;DHT22;3600;48.568;7.870;2022-11-20T00:02:44;8.00;99.90
7117;DHT22;3600;48.568;7.870;2022-11-20T00:05:10;8.00;99.90
7117;DHT22;3600;48.568;7.870;2022-11-20T00:07:37;8.00;99.90
7117;DHT22;3600;48.568;7.870;2022-11-20T00:10:04;8.00;99.90
7117;DHT22;3600;48.568;7.870;2022-11-20T00:12:31;8.00;99.90
7117;DHT22;3600;48.568;7.870;2022-11-20T00:14:58;8.00;99.90
7117;DHT22;3600;48.568;7.870;2022-11-20T00:17:25;8.00;99.90
7117;DHT22;3600;48.568;7.870;2022-11-20T00:19:51;8.00;99.90
7117;DHT22;3600;48.568;7.870;2022-11-20T00:22:18;8.00;99.90
7117;DHT22;3600;48.568;7.870;2022-11-20T00:24:45;8.00;99.90
7117;DHT22;3600;48.568;7.870;2022-11-20T00:27:11;8.00;99.90
7117;DHT22;3600;48.568;7.870;2022-11-20T00:29:38;8.00;99.90
7117;DHT22;3600;48.568;7.870;2022-11-20T00:32:05;8.00;99.90
7117;DHT22;3600;48.568;7.870;2022-11-20T00:34:31;7.90;99.90
7117;DHT22;3600;48.568;7.870;2022-11-20T00:36:58;8.00;99.90
7117;DHT22;3600;48.568;7.870;2022-11-20T00:39:25;7.90;99.90
7117;DHT22;3600;48.568;7.870;2022-11-20T00:41:51;7.90;99.90
7117;DHT22;3600;48.568;7.870;2022-11-20T00:44:18;7.90;99.90
7117;DHT22;3600;48.568;7.870;2022-11-20T00:46:45;7.90;99.90
7117;DHT22;3600;48.568;7.870;2022-11-20T00:49:11;7.90;99.90
7117;DHT22;3600;48.568;7.870;2022-11-20T00:51:38;7.80;99.90
7117;DHT22;3600;48.568;7.870;2022-11-20T00:54:05;7.80;99.90
7117;DHT22;3600;48.568;7.870;2022-11-20T00:56:32;7.90;99.90
7117;DHT22;3600;48.568;7.870;2022-11-20T00:59:00;7.80;99.90
7117;DHT22;3600;48.568;7.870;2022-11-20T01:01:28;7.80;99.90
7117;DHT22;3600;48.568;7.870;2022-11-20T01:03:59;7.80;99.90
7117;DHT22;3600;48.568;7.870;2022-11-20T01:06:30;7.80;99.90
7117;DHT22;3600;48.568;7.870;2022-11-20T01:08:59;7.80;99.90
7117;DHT22;3600;48.568;7.870;2022-11-20T01:11:31;7.80;99.90
7117;DHT22;3600;48.568;7.870;2022-11-20T01:14:00;7.80;99.90
7117;DHT22;3600;48.568;7.870;2022-11-20T01:16:30;7.70;99.90
7117;DHT22;3600;48.568;7.870;2022-11-20T01:18:59;7.70;99.90
7117;DHT22;3600;48.568;7.870;2022-11-20T01:21:29;7.70;99.90
7117;DHT22;3600;48.568;7.870;2022-11-20T01:23:57;7.70;99.90
7117;DHT22;3600;48.568;7.870;2022-11-20T01:26:26;7.70;99.90
7117;DHT22;3600;48.568;7.870;2022-11-20T01:28:53;7.70;99.90
7117;DHT22;3600;48.568;7.870;2022-11-20T01:31:28;7.70;99.90
7117;DHT22;3600;48.568;7.870;2022-11-20T01:33:57;7.70;99.90
7117;DHT22;3600;48.568;7.870;2022-11-20T01:36:27;7.70;99.90
7117;DHT22;3600;48.568;7.870;2022-11-20T01:38:56;7.70;99.90
7117;DHT22;3600;48.568;7.870;2022-11-20T01:41:27;7.70;99.90
7117;DHT22;3600;48.568;7.870;2022-11-20T01:44:19;7.70;99.90
7117;DHT22;3600;48.568;7.870;2022-11-20T01:47:00;7.70;99.90
7117;DHT22;3600;48.568;7.870;2022-11-20T01:49:31;7.70;99.90
7117;DHT22;3600;48.568;7.870;2022-11-20T01:52:04;7.60;99.90
7117;DHT22;3600;48.568;7.870;2022-11-20T01:54:36;7.70;99.90
7117;DHT22;3600;48.568;7.870;2022-11-20T01:57:06;7.70;99.90
7117;DHT22;3600;48.568;7.870;2022-11-20T01:59:36;7.60;99.90
7117;DHT22;3600;48.568;7.870;2022-11-20T02:02:04;7.60;99.90
7117;DHT22;3600;48.568;7.870;2022-11-20T02:04:31;7.60;99.90
7117;DHT22;3600;48.568;7.870;2022-11-20T02:07:02;7.70;99.90
7117;DHT22;3600;48.568;7.870;2022-11-20T02:09:30;7.60;99.90
7117;DHT22;3600;48.568;7.870;2022-11-20T02:11:58;7.60;99.90
7117;DHT22;3600;48.568;7.870;2022-11-20T02:14:25;7.60;99.90
7117;DHT22;3600;48.568;7.870;2022-11-20T02:16:54;7.60;99.90
7117;DHT22;3600;48.568;7.870;2022-11-20T02:19:27;7.60;99.90
7117;DHT22;3600;48.568;7.870;2022-11-20T02:22:14;7.60;99.90
7117;DHT22;3600;48.568;7.870;2022-11-20T02:24:45;7.60;99.90
7117;DHT22;3600;48.568;7.870;2022-11-20T02:27:14;7.50;99.90
7117;DHT22;3600;48.568;7.870;2022-11-20T02:29:56;7.50;99.90
7117;DHT22;3600;48.568;7.870;2022-11-20T02:34:52;7.40;99.90
7117;DHT22;3600;48.568;7.870;2022-11-20T02:37:20;7.40;99.90
7117;DHT22;3600;48.568;7.870;2022-11-20T02:39:49;7.50;99.90
7117;DHT22;3600;48.568;7.870;2022-11-20T02:42:16;7.50;99.90
7117;DHT22;3600;48.568;7.870;2022-11-20T02:44:43;7.40;99.90
7117;DHT22;3600;48.568;7.870;2022-11-20T02:47:10;7.40;99.90
7117;DHT22;3600;48.568;7.870;2022-11-20T02:49:37;7.40;99.90
7117;DHT22;3600;48.568;7.870;2022-11-20T02:52:04;7.30;99.90
7117;DHT22;3600;48.568;7.870;2022-11-20T02:54:31;7.30;99.90
7117;DHT22;3600;48.568;7.870;2022-11-20T02:56:57;7.40;99.90
7117;DHT22;3600;48.568;7.870;2022-11-20T02:59:24;7.40;99.90
7117;DHT22;3600;48.568;7.870;2022-11-20T03:01:51;7.40;99.90
7117;DHT22;3600;48.568;7.870;2022-11-20T03:04:17;7.40;99.90
7117;DHT22;3600;48.568;7.870;2022-11-20T03:06:44;7.40;99.90
7117;DHT22;3600;48.568;7.870;2022-11-20T03:09:11;7.40;99.90
7117;DHT22;3600;48.568;7.870;2022-11-20T03:11:38;7.40;99.90
7117;DHT22;3600;48.568;7.870;2022-11-20T03:14:05;7.40;99.90
7117;DHT22;3600;48.568;7.870;2022-11-20T03:16:32;7.40;99.90
7117;DHT22;3600;48.568;7.870;2022-11-20T03:18:59;7.40;99.90
7117;DHT22;3600;48.568;7.870;2022-11-20T03:21:26;7.40;99.90
7117;DHT22;3600;48.568;7.870;2022-11-20T03:23:54;7.40;99.90
7117;DHT22;3600;48.568;7.870;2022-11-20T03:26:23;7.30;99.90
7117;DHT22;3600;48.568;7.870;2022-11-20T03:28:52;7.40;99.90
7117;DHT22;3600;48.568;7.870;2022-11-20T03:31:21;7.40;99.90
7117;DHT22;3600;48.568;7.870;2022-11-20T03:33:48;7.40;99.90
7117;DHT22;3600;48.568;7.870;2022-11-20T03:36:17;7.30;99.90
7117;DHT22;3600;48.568;7.870;2022-11-20T03:38:44;7.40;99.90
7117;DHT22;3600;48.568;7.870;2022-11-20T03:41:13;7.40;99.90
7117;DHT22;3600;48.568;7.870;2022-11-20T03:43:40;7.40;99.90
7117;DHT22;3600;48.568;7.870;2022-11-20T03:46:07;7.30;99.90
7117;DHT22;3600;48.568;7.870;2022-11-20T03:48:34;7.30;99.90
7117;DHT22;3600;48.568;7.870;2022-11-20T03:53:42;7.30;99.90
7117;DHT22;3600;48.568;7.870;2022-11-20T03:56:11;7.30;99.90
7117;DHT22;3600;48.568;7.870;2022-11-20T03:58:39;7.30;99.90
7117;DHT22;3600;48.568;7.870;2022-11-20T04:01:12;7.30;99.90
7117;DHT22;3600;48.568;7.870;2022-11-20T04:03:41;7.30;99.90
7117;DHT22;3600;48.568;7.870;2022-11-20T04:06:13;7.40;99.90
7117;DHT22;3600;48.568;7.870;2022-11-20T04:08:41;7.30;99.90
7117;DHT22;3600;48.568;7.870;2022-11-20T04:11:20;7.30;99.90
7117;DHT22;3600;48.568;7.870;2022-11-20T04:13:49;7.30;99.90
7117;DHT22;3600;48.568;7.870;2022-11-20T04:16:16;7.30;99.90
7117;DHT22;3600;48.568;7.870;2022-11-20T04:18:44;7.30;99.90
7117;DHT22;3600;48.568;7.870;2022-11-20T04:21:11;7.30;99.90
7117;DHT22;3600;48.568;7.870;2022-11-20T04:23:38;7.30;99.90
7117;DHT22;3600;48.568;7.870;2022-11-20T04:26:11;7.30;99.90
7117;DHT22;3600;48.568;7.870;2022-11-20T04:28:38;7.30;99.90
7117;DHT22;3600;48.568;7.870;2022-11-20T04:31:13;7.30;99.90
7117;DHT22;3600;48.568;7.870;2022-11-20T04:33:41;7.30;99.90
7117;DHT22;3600;48.568;7.870;2022-11-20T04:36:13;7.30;99.90
7117;DHT22;3600;48.568;7.870;2022-11-20T04:38:41;7.30;99.90
7117;DHT22;3600;48.568;7.870;2022-11-20T04:41:16;7.30;99.90
7117;DHT22;3600;48.568;7.870;2022-11-20T04:43:48;7.30;99.90
7117;DHT22;3600;48.568;7.870;2022-11-20T04:46:16;7.30;99.90
7117;DHT22;3600;48.568;7.870;2022-11-20T04:48:43;7.30;99.90
7117;DHT22;3600;48.568;7.870;2022-11-20T04:51:11;7.30;99.90
7117;DHT22;3600;48.568;7.870;2022-11-20T04:53:38;7.30;99.90
7117;DHT22;3600;48.568;7.870;2022-11-20T04:56:06;7.30;99.90
7117;DHT22;3600;48.568;7.870;2022-11-20T04:58:34;7.30;99.90
7117;DHT22;3600;48.568;7.870;2022-11-20T05:01:09;7.30;99.90
7117;DHT22;3600;48.568;7.870;2022-11-20T05:03:36;7.30;99.90
7117;DHT22;3600;48.568;7.870;2022-11-20T05:06:10;7.30;99.90
7117;DHT22;3600;48.568;7.870;2022-11-20T05:08:37;7.30;99.90
7117;DHT22;3600;48.568;7.870;2022-11-20T05:11:09;7.30;99.90
7117;DHT22;3600;48.568;7.870;2022-11-20T05:13:37;7.30;99.90
7117;DHT22;3600;48.568;7.870;2022-11-20T05:16:06;7.30;99.90
7117;DHT22;3600;48.568;7.870;2022-11-20T05:18:34;7.30;99.90
7117;DHT22;3600;48.568;7.870;2022-11-20T05:21:01;7.30;99.90
7117;DHT22;3600;48.568;7.870;2022-11-20T05:23:30;7.30;99.90
7117;DHT22;3600;48.568;7.870;2022-11-20T05:25:58;7.30;99.90
7117;DHT22;3600;48.568;7.870;2022-11-20T05:28:26;7.30;99.90
7117;DHT22;3600;48.568;7.870;2022-11-20T05:30:53;7.30;99.90
7117;DHT22;3600;48.568;7.870;2022-11-20T05:33:20;7.30;99.90
7117;DHT22;3600;48.568;7.870;2022-11-20T05:35:48;7.30;99.90
7117;DHT22;3600;48.568;7.870;2022-11-20T05:38:15;7.30;99.90
7117;DHT22;3600;48.568;7.870;2022-11-20T05:40:42;7.30;99.90
7117;DHT22;3600;48.568;7.870;2022-11-20T05:43:08;7.30;99.90
7117;DHT22;3600;48.568;7.870;2022-11-20T05:45:35;7.30;99.90
7117;DHT22;3600;48.568;7.870;2022-11-20T05:48:02;7.30;99.90
7117;DHT22;3600;48.568;7.870;2022-11-20T05:50:29;7.30;99.90
7117;DHT22;3600;48.568;7.870;2022-11-20T05:53:00;7.40;99.90
7117;DHT22;3600;48.568;7.870;2022-11-20T05:55:27;7.40;99.90
7117;DHT22;3600;48.568;7.870;2022-11-20T05:57:54;7.30;99.90
7117;DHT22;3600;48.568;7.870;2022-11-20T06:00:21;7.30;99.90
7117;DHT22;3600;48.568;7.870;2022-11-20T06:02:48;7.30;99.90
7117;DHT22;3600;48.568;7.870;2022-11-20T06:05:15;7.30;99.90
7117;DHT22;3600;48.568;7.870;2022-11-20T06:07:42;7.30;99.90
7117;DHT22;3600;48.568;7.870;2022-11-20T06:10:09;7.30;99.90
7117;DHT22;3600;48.568;7.870;2022-11-20T06:12:36;7.40;99.90
7117;DHT22;3600;48.568;7.870;2022-11-20T06:15:04;7.40;99.90
7117;DHT22;3600;48.568;7.870;2022-11-20T06:17:31;7.40;99.90
7117;DHT22;3600;48.568;7.870;2022-11-20T06:19:58;7.40;99.90
7117;DHT22;3600;48.568;7.870;2022-11-20T06:22:24;7.30;99.90
7117;DHT22;3600;48.568;7.870;2022-11-20T06:24:51;7.40;99.90
7117;DHT22;3600;48.568;7.870;2022-11-20T06:27:18;7.40;99.90
7117;DHT22;3600;48.568;7.870;2022-11-20T06:29:45;7.40;99.90
7117;DHT22;3600;48.568;7.870;2022-11-20T06:32:11;7.40;99.90
7117;DHT22;3600;48.568;7.870;2022-11-20T06:34:38;7.40;99.90
7117;DHT22;3600;48.568;7.870;2022-11-20T06:37:05;7.40;99.90
7117;DHT22;3600;48.568;7.870;2022-11-20T06:39:32;7.40;99.90
7117;DHT22;3600;48.568;7.870;2022-11-20T06:41:58;7.40;99.90
7117;DHT22;3600;48.568;7.870;2022-11-20T06:44:25;7.40;99.90
7117;DHT22;3600;48.568;7.870;2022-11-20T06:46:52;7.30;99.90
7117;DHT22;3600;48.568;7.870;2022-11-20T06:49:19;7.30;99.90
7117;DHT22;3600;48.568;7.870;2022-11-20T06:51:46;7.40;99.90
7117;DHT22;3600;48.568;7.870;2022-11-20T06:54:13;7.40;99.90
7117;DHT22;3600;48.568;7.870;2022-11-20T06:56:40;7.40;99.90
7117;DHT22;3600;48.568;7.870;2022-11-20T06:59:07;7.30;99.90
7117;DHT22;3600;48.568;7.870;2022-11-20T07:01:34;7.30;99.90
7117;DHT22;3600;48.568;7.870;2022-11-20T07:04:01;7.30;99.90
7117;DHT22;3600;48.568;7.870;2022-11-20T07:06:29;7.40;99.90
7117;DHT22;3600;48.568;7.870;2022-11-20T07:08:56;7.30;99.90
7117;DHT22;3600;48.568;7.870;2022-11-20T07:11:23;7.30;99.90
7117;DHT22;3600;48.568;7.870;2022-11-20T07:13:50;7.30;99.90
7117;DHT22;3600;48.568;7.870;2022-11-20T07:16:17;7.30;99.90
7117;DHT22;3600;48.568;7.870;2022-11-20T07:18:44;7.40;99.90
7117;DHT22;3600;48.568;7.870;2022-11-20T07:21:16;7.30;99.90
7117;DHT22;3600;48.568;7.870;2022-11-20T07:23:43;7.30;99.90
7117;DHT22;3600;48.568;7.870;2022-11-20T07:26:10;7.30;99.90
7117;DHT22;3600;48.568;7.870;2022-11-20T07:28:37;7.30;99.90
7117;DHT22;3600;48.568;7.870;2022-11-20T07:31:05;7.30;99.90
7117;DHT22;3600;48.568;7.870;2022-11-20T07:33:33;7.40;99.90
7117;DHT22;3600;48.568;7.870;2022-11-20T07:36:01;7.50;99.90
7117;DHT22;3600;48.568;7.870;2022-11-20T07:38:28;7.50;99.90
7117;DHT22;3600;48.568;7.870;2022-11-20T07:40:56;7.50;99.90
7117;DHT22;3600;48.568;7.870;2022-11-20T07:43:24;7.40;99.90
7117;DHT22;3600;48.568;7.870;2022-11-20T07:45:51;7.40;99.90
7117;DHT22;3600;48.568;7.870;2022-11-20T07:48:18;7.40;99.90
7117;DHT22;3600;48.568;7.870;2022-11-20T07:50:45;7.40;99.90
7117;DHT22;3600;48.568;7.870;2022-11-20T07:53:12;7.40;99.90
7117;DHT22;3600;48.568;7.870;2022-11-20T07:55:40;7.40;99.90
7117;DHT22;3600;48.568;7.870;2022-11-20T07:58:07;7.40;99.90
7117;DHT22;3600;48.568;7.870;2022-11-20T08:00:33;7.40;99.90
7117;DHT22;3600;48.568;7.870;2022-11-20T08:03:05;7.40;99.90
7117;DHT22;3600;48.568;7.870;2022-11-20T08:05:32;7.40;99.90
7117;DHT22;3600;48.568;7.870;2022-11-20T08:07:59;7.40;99.90
7117;DHT22;3600;48.568;7.870;2022-11-20T08:10:26;7.40;99.90
7117;DHT22;3600;48.568;7.870;2022-11-20T08:12:53;7.40;99.90
7117;DHT22;3600;48.568;7.870;2022-11-20T08:15:39;7.40;99.90
7117;DHT22;3600;48.568;7.870;2022-11-20T08:18:10;7.40;99.90
7117;DHT22;3600;48.568;7.870;2022-11-20T08:21:01;7.40;99.90
7117;DHT22;3600;48.568;7.870;2022-11-20T08:23:28;7.40;99.90
7117;DHT22;3600;48.568;7.870;2022-11-20T08:25:55;7.40;99.90
7117;DHT22;3600;48.568;7.870;2022-11-20T08:28:21;7.40;99.90
7117;DHT22;3600;48.568;7.870;2022-11-20T08:30:49;7.40;99.90
7117;DHT22;3600;48.568;7.870;2022-11-20T08:33:17;7.40;99.90
7117;DHT22;3600;48.568;7.870;2022-11-20T08:35:44;7.50;99.90
7117;DHT22;3600;48.568;7.870;2022-11-20T08:38:11;7.40;99.90
7117;DHT22;3600;48.568;7.870;2022-11-20T08:40:38;7.50;99.90
7117;DHT22;3600;48.568;7.870;2022-11-20T08:43:04;7.50;99.90
7117;DHT22;3600;48.568;7.870;2022-11-20T08:45:31;7.50;99.90
7117;DHT22;3600;48.568;7.870;2022-11-20T08:48:02;7.50;99.90
7117;DHT22;3600;48.568;7.870;2022-11-20T08:50:30;7.50;99.90
7117;DHT22;3600;48.568;7.870;2022-11-20T08:53:05;7.50;99.90
7117;DHT22;3600;48.568;7.870;2022-11-20T08:55:33;7.50;99.90
7117;DHT22;3600;48.568;7.870;2022-11-20T08:58:05;7.60;99.90
7117;DHT22;3600;48.568;7.870;2022-11-20T09:00:33;7.60;99.90
7117;DHT22;3600;48.568;7.870;2022-11-20T09:03:00;7.60;99.90
7117;DHT22;3600;48.568;7.870;2022-11-20T09:05:28;7.70;99.90
7117;DHT22;3600;48.568;7.870;2022-11-20T09:07:58;7.70;99.90
7117;DHT22;3600;48.568;7.870;2022-11-20T09:10:28;7.70;99.90
7117;DHT22;3600;48.568;7.870;2022-11-20T09:12:55;7.70;99.90
7117;DHT22;3600;48.568;7.870;2022-11-20T09:15:23;7.80;99.90
7117;DHT22;3600;48.568;7.870;2022-11-20T09:18:01;7.80;99.90
7117;DHT22;3600;48.568;7.870;2022-11-20T09:20:29;7.80;99.90
7117;DHT22;3600;48.568;7.870;2022-11-20T09:22:57;7.80;99.90
7117;DHT22;3600;48.568;7.870;2022-11-20T09:25:24;7.90;99.90
7117;DHT22;3600;48.568;7.870;2022-11-20T09:27:58;7.90;99.90
7117;DHT22;3600;48.568;7.870;2022-11-20T09:30:26;7.90;99.90
7117;DHT22;3600;48.568;7.870;2022-11-20T09:32:53;7.90;99.90
7117;DHT22;3600;48.568;7.870;2022-11-20T09:35:20;7.90;99.90
7117;DHT22;3600;48.568;7.870;2022-11-20T09:37:46;7.90;99.90
7117;DHT22;3600;48.568;7.870;2022-11-20T09:40:22;8.00;99.90
7117;DHT22;3600;48.568;7.870;2022-11-20T09:54:05;8.20;99.90
7117;DHT22;3600;48.568;7.870;2022-11-20T09:56:36;8.20;99.90
7117;DHT22;3600;48.568;7.870;2022-11-20T09:59:06;8.30;99.90
7117;DHT22;3600;48.568;7.870;2022-11-20T10:01:36;8.30;99.90
7117;DHT22;3600;48.568;7.870;2022-11-20T10:04:16;8.30;99.90
7117;DHT22;3600;48.568;7.870;2022-11-20T10:09:38;8.40;99.90
7117;DHT22;3600;48.568;7.870;2022-11-20T10:20:43;8.60;99.90
7117;DHT22;3600;48.568;7.870;2022-11-20T10:26:16;8.60;99.90
7117;DHT22;3600;48.568;7.870;2022-11-20T10:31:43;8.70;99.90
7117;DHT22;3600;48.568;7.870;2022-11-20T10:34:22;8.80;99.90
7117;DHT22;3600;48.568;7.870;2022-11-20T10:36:59;8.80;99.90
7117;DHT22;3600;48.568;7.870;2022-11-20T10:39:41;8.80;99.90
7117;DHT22;3600;48.568;7.870;2022-11-20T10:42:11;8.90;99.90
7117;DHT22;3600;48.568;7.870;2022-11-20T10:44:39;8.90;99.90
7117;DHT22;3600;48.568;7.870;2022-11-20T10:47:31;8.90;99.90
7117;DHT22;3600;48.568;7.870;2022-11-20T10:50:05;8.90;99.90
7117;DHT22;3600;48.568;7.870;2022-11-20T10:55:46;9.10;99.90
7117;DHT22;3600;48.568;7.870;2022-11-20T10:58:28;9.20;99.90
7117;DHT22;3600;48.568;7.870;2022-11-20T11:01:25;9.40;99.90
7117;DHT22;3600;48.568;7.870;2022-11-20T11:03:53;9.50;99.90
7117;DHT22;3600;48.568;7.870;2022-11-20T11:06:36;9.40;99.90
7117;DHT22;3600;48.568;7.870;2022-11-20T11:09:10;9.50;99.90
7117;DHT22;3600;48.568;7.870;2022-11-20T11:11:38;9.50;99.90
7117;DHT22;3600;48.568;7.870;2022-11-20T11:14:05;9.50;99.90
7117;DHT22;3600;48.568;7.870;2022-11-20T11:16:33;9.60;99.90
7117;DHT22;3600;48.568;7.870;2022-11-20T11:21:31;9.70;99.90
7117;DHT22;3600;48.568;7.870;2022-11-20T11:24:00;9.70;99.90
7117;DHT22;3600;48.568;7.870;2022-11-20T11:27:00;9.70;99.90
7117;DHT22;3600;48.568;7.870;2022-11-20T11:29:31;9.60;99.90
7117;DHT22;3600;48.568;7.870;2022-11-20T11:32:12;9.70;99.90
7117;DHT22;3600;48.568;7.870;2022-11-20T11:34:39;9.60;99.90
7117;DHT22;3600;48.568;7.870;2022-11-20T11:37:16;9.50;99.90
7117;DHT22;3600;48.568;7.870;2022-11-20T11:39:44;9.50;99.90
7117;DHT22;3600;48.568;7.870;2022-11-20T11:42:20;9.40;99.90
7117;DHT22;3600;48.568;7.870;2022-11-20T11:44:47;9.50;99.90
7117;DHT22;3600;48.568;7.870;2022-11-20T11:47:34;9.50;99.90
7117;DHT22;3600;48.568;7.870;2022-11-20T11:52:50;9.50;99.90
7117;DHT22;3600;48.568;7.870;2022-11-20T11:55:38;9.60;99.90
7117;DHT22;3600;48.568;7.870;2022-11-20T11:58:33;9.60;99.90
7117;DHT22;3600;48.568;7.870;2022-11-20T12:03:59;9.90;99.90
7117;DHT22;3600;48.568;7.870;2022-11-20T12:06:28;10.00;99.90
7117;DHT22;3600;48.568;7.870;2022-11-20T12:09:01;10.00;99.90
7117;DHT22;3600;48.568;7.870;2022-11-20T12:11:53;10.00;99.90
7117;DHT22;3600;48.568;7.870;2022-11-20T12:14:42;9.80;99.90
7117;DHT22;3600;48.568;7.870;2022-11-20T12:17:13;9.90;99.90
7117;DHT22;3600;48.568;7.870;2022-11-20T12:19:40;9.80;99.90
7117;DHT22;3600;48.568;7.870;2022-11-20T12:25:30;9.70;99.90
7117;DHT22;3600;48.568;7.870;2022-11-20T12:31:06;9.90;99.90
7117;DHT22;3600;48.568;7.870;2022-11-20T12:34:07;9.80;99.90
7117;DHT22;3600;48.568;7.870;2022-11-20T12:39:39;9.80;99.90
7117;DHT22;3600;48.568;7.870;2022-11-20T12:42:32;9.80;99.90
7117;DHT22;3600;48.568;7.870;2022-11-20T12:48:25;9.90;99.90
7117;DHT22;3600;48.568;7.870;2022-11-20T12:53:55;10.00;99.90
7117;DHT22;3600;48.568;7.870;2022-11-20T13:06:46;10.30;99.90
7117;DHT22;3600;48.568;7.870;2022-11-20T13:09:18;10.40;99.90
7117;DHT22;3600;48.568;7.870;2022-11-20T13:12:00;10.40;99.90
7117;DHT22;3600;48.568;7.870;2022-11-20T13:17:37;10.40;99.90
7117;DHT22;3600;48.568;7.870;2022-11-20T13:20:14;10.50;99.90
7117;DHT22;3600;48.568;7.870;2022-11-20T13:22:47;10.50;99.90
7117;DHT22;3600;48.568;7.870;2022-11-20T13:25:34;10.70;99.90
7117;DHT22;3600;48.568;7.870;2022-11-20T13:30:31;10.80;99.90
7117;DHT22;3600;48.568;7.870;2022-11-20T13:33:08;10.90;99.90
7117;DHT22;3600;48.568;7.870;2022-11-20T13:36:01;11.00;99.90
7117;DHT22;3600;48.568;7.870;2022-11-20T13:38:44;11.00;99.90
7117;DHT22;3600;48.568;7.870;2022-11-20T13:41:24;10.90;99.90
7117;DHT22;3600;48.568;7.870;2022-11-20T13:46:48;10.90;99.90
7117;DHT22;3600;48.568;7.870;2022-11-20T13:49:34;10.90;99.90
7117;DHT22;3600;48.568;7.870;2022-11-20T14:00:24;10.80;99.90
7117;DHT22;3600;48.568;7.870;2022-11-20T14:05:39;10.70;99.90
7117;DHT22;3600;48.568;7.870;2022-11-20T14:08:14;10.60;99.90
7117;DHT22;3600;48.568;7.870;2022-11-20T14:10:44;10.50;99.90
7117;DHT22;3600;48.568;7.870;2022-11-20T14:13:19;10.50;99.90
7117;DHT22;3600;48.568;7.870;2022-11-20T14:15:46;10.40;99.90
7117;DHT22;3600;48.568;7.870;2022-11-20T14:18:22;10.30;99.90
7117;DHT22;3600;48.568;7.870;2022-11-20T14:20:49;10.30;99.90
7117;DHT22;3600;48.568;7.870;2022-11-20T14:23:26;10.30;99.90
7117;DHT22;3600;48.568;7.870;2022-11-20T14:25:55;10.30;99.90
7117;DHT22;3600;48.568;7.870;2022-11-20T14:28:28;10.20;99.90
7117;DHT22;3600;48.568;7.870;2022-11-20T14:30:56;10.10;99.90
7117;DHT22;3600;48.568;7.870;2022-11-20T14:33:25;10.00;99.90
7117;DHT22;3600;48.568;7.870;2022-11-20T14:35:54;10.00;99.90
7117;DHT22;3600;48.568;7.870;2022-11-20T14:38:25;10.00;99.90
7117;DHT22;3600;48.568;7.870;2022-11-20T14:40:52;10.00;99.90
7117;DHT22;3600;48.568;7.870;2022-11-20T14:43:23;9.90;99.90
7117;DHT22;3600;48.568;7.870;2022-11-20T14:46:02;9.80;99.90
7117;DHT22;3600;48.568;7.870;2022-11-20T14:48:39;9.80;99.90
7117;DHT22;3600;48.568;7.870;2022-11-20T14:51:22;9.80;99.90
7117;DHT22;3600;48.568;7.870;2022-11-20T14:53:49;9.80;99.90
7117;DHT22;3600;48.568;7.870;2022-11-20T14:56:24;9.80;99.90
7117;DHT22;3600;48.568;7.870;2022-11-20T14:58:57;9.70;99.90
7117;DHT22;3600;48.568;7.870;2022-11-20T15:01:29;9.60;99.90
7117;DHT22;3600;48.568;7.870;2022-11-20T15:04:07;9.60;99.90
7117;DHT22;3600;48.568;7.870;2022-11-20T15:06:36;9.50;99.90
7117;DHT22;3600;48.568;7.870;2022-11-20T15:09:04;9.50;99.90
7117;DHT22;3600;48.568;7.870;2022-11-20T15:11:33;9.50;99.90
7117;DHT22;3600;48.568;7.870;2022-11-20T15:14:06;9.40;99.90
7117;DHT22;3600;48.568;7.870;2022-11-20T15:16:33;9.40;99.90
7117;DHT22;3600;48.568;7.870;2022-11-20T15:19:00;9.40;99.90
7117;DHT22;3600;48.568;7.870;2022-11-20T15:21:28;9.40;99.90
7117;DHT22;3600;48.568;7.870;2022-11-20T15:23:56;9.30;99.90
7117;DHT22;3600;48.568;7.870;2022-11-20T15:26:27;9.30;99.90
7117;DHT22;3600;48.568;7.870;2022-11-20T15:28:54;9.20;99.90
7117;DHT22;3600;48.568;7.870;2022-11-20T15:31:22;9.20;99.90
7117;DHT22;3600;48.568;7.870;2022-11-20T15:33:50;9.20;99.90
7117;DHT22;3600;48.568;7.870;2022-11-20T15:36:17;9.10;99.90
7117;DHT22;3600;48.568;7.870;2022-11-20T15:38:43;9.20;99.90
7117;DHT22;3600;48.568;7.870;2022-11-20T15:41:10;9.10;99.90
7117;DHT22;3600;48.568;7.870;2022-11-20T15:43:37;9.10;99.90
7117;DHT22;3600;48.568;7.870;2022-11-20T15:46:08;9.10;99.90
7117;DHT22;3600;48.568;7.870;2022-11-20T15:48:38;9.10;99.90
7117;DHT22;3600;48.568;7.870;2022-11-20T15:53:49;9.00;99.90
7117;DHT22;3600;48.568;7.870;2022-11-20T15:56:16;9.00;99.90
7117;DHT22;3600;48.568;7.870;2022-11-20T15:58:43;9.00;99.90
7117;DHT22;3600;48.568;7.870;2022-11-20T16:01:15;9.00;99.90
7117;DHT22;3600;48.568;7.870;2022-11-20T16:03:42;9.00;99.90
7117;DHT22;3600;48.568;7.870;2022-11-20T16:06:09;8.90;99.90
7117;DHT22;3600;48.568;7.870;2022-11-20T16:08:36;8.90;99.90
7117;DHT22;3600;48.568;7.870;2022-11-20T16:11:03;8.90;99.90
7117;DHT22;3600;48.568;7.870;2022-11-20T16:13:31;8.90;99.90
7117;DHT22;3600;48.568;7.870;2022-11-20T16:16:22;8.90;99.90
7117;DHT22;3600;48.568;7.870;2022-11-20T16:18:49;8.90;99.90
7117;DHT22;3600;48.568;7.870;2022-11-20T16:21:16;8.90;99.90
7117;DHT22;3600;48.568;7.870;2022-11-20T16:23:43;8.80;99.90
7117;DHT22;3600;48.568;7.870;2022-11-20T16:28:37;8.80;99.90
7117;DHT22;3600;48.568;7.870;2022-11-20T16:31:16;8.80;99.90
7117;DHT22;3600;48.568;7.870;2022-11-20T16:33:52;8.90;99.90
7117;DHT22;3600;48.568;7.870;2022-11-20T16:36:20;8.90;99.90
7117;DHT22;3600;48.568;7.870;2022-11-20T16:38:55;8.90;99.90
7117;DHT22;3600;48.568;7.870;2022-11-20T16:41:23;8.80;99.90
7117;DHT22;3600;48.568;7.870;2022-11-20T16:43:52;8.80;99.90
7117;DHT22;3600;48.568;7.870;2022-11-20T16:46:21;8.80;99.90
7117;DHT22;3600;48.568;7.870;2022-11-20T16:48:59;8.80;99.90
7117;DHT22;3600;48.568;7.870;2022-11-20T16:51:28;8.80;99.90
7117;DHT22;3600;48.568;7.870;2022-11-20T16:53:54;8.80;99.90
7117;DHT22;3600;48.568;7.870;2022-11-20T16:56:26;8.80;99.90
7117;DHT22;3600;48.568;7.870;2022-11-20T16:58:55;8.80;99.90
7117;DHT22;3600;48.568;7.870;2022-11-20T17:01:23;8.80;99.90
7117;DHT22;3600;48.568;7.870;2022-11-20T17:04:08;8.80;99.90
7117;DHT22;3600;48.568;7.870;2022-11-20T17:06:37;8.70;99.90
7117;DHT22;3600;48.568;7.870;2022-11-20T17:09:06;8.80;99.90
7117;DHT22;3600;48.568;7.870;2022-11-20T17:11:35;8.70;99.90
7117;DHT22;3600;48.568;7.870;2022-11-20T17:14:03;8.70;99.90
7117;DHT22;3600;48.568;7.870;2022-11-20T17:16:30;8.70;99.90
7117;DHT22;3600;48.568;7.870;2022-11-20T17:18:57;8.70;99.90
7117;DHT22;3600;48.568;7.870;2022-11-20T17:21:30;8.70;99.90
7117;DHT22;3600;48.568;7.870;2022-11-20T17:24:05;8.70;99.90
7117;DHT22;3600;48.568;7.870;2022-11-20T17:26:33;8.70;99.90
7117;DHT22;3600;48.568;7.870;2022-11-20T17:29:14;8.70;99.90
7117;DHT22;3600;48.568;7.870;2022-11-20T17:31:42;8.70;99.90
7117;DHT22;3600;48.568;7.870;2022-11-20T17:34:11;8.70;99.90
7117;DHT22;3600;48.568;7.870;2022-11-20T17:36:39;8.60;99.90
7117;DHT22;3600;48.568;7.870;2022-11-20T17:39:15;8.60;99.90
7117;DHT22;3600;48.568;7.870;2022-11-20T17:41:42;8.50;99.90
7117;DHT22;3600;48.568;7.870;2022-11-20T17:44:11;8.50;99.90
7117;DHT22;3600;48.568;7.870;2022-11-20T17:46:38;8.40;99.90
7117;DHT22;3600;48.568;7.870;2022-11-20T17:49:05;8.30;99.90
7117;DHT22;3600;48.568;7.870;2022-11-20T17:51:33;8.30;99.90
7117;DHT22;3600;48.568;7.870;2022-11-20T17:54:03;8.30;99.90
7117;DHT22;3600;48.568;7.870;2022-11-20T17:56:31;8.20;99.90
7117;DHT22;3600;48.568;7.870;2022-11-20T17:59:17;8.10;99.90
7117;DHT22;3600;48.568;7.870;2022-11-20T18:01:46;8.10;99.90
7117;DHT22;3600;48.568;7.870;2022-11-20T18:04:13;8.10;99.90
7117;DHT22;3600;48.568;7.870;2022-11-20T18:06:41;8.00;99.90
7117;DHT22;3600;48.568;7.870;2022-11-20T18:09:08;8.00;99.90
7117;DHT22;3600;48.568;7.870;2022-11-20T18:11:38;8.00;99.90